sensor_id;sensor_type;location;lat;lon;timestamp;pressure;altitude;pressure_sealevel;temperature;humidity
30554;BME280;17335;50.720;7.452;2023-05-19T00:01:18;100131.34;;;6.38;100.00
30554;BME280;17335;50.720;7.452;2023-05-19T00:03:56;100119.56;;;6.28;100.00
30554;BME280;17335;50.720;7.452;2023-05-19T00:06:25;100130.41;;;6.25;100.00
30554;BME280;17335;50.720;7.452;2023-05-19T00:09:00;100123.47;;;6.22;100.00
30554;BME280;17335;50.720;7.452;2023-05-19T00:11:27;100122.41;;;6.25;100.00
30554;BME280;17335;50.720;7.452;2023-05-19T00:13:57;100120.59;;;6.25;100.00
30554;BME280;17335;50.720;7.452;2023-05-19T00:16:26;100121.66;;;6.23;100.00
30554;BME280;17335;50.720;7.452;2023-05-19T00:18:54;100116.63;;;6.18;100.00
30554;BME280;17335;50.720;7.452;2023-05-19T00:21:22;100117.00;;;6.12;100.00
30554;BME280;17335;50.720;7.452;2023-05-19T00:23:49;100113.41;;;5.98;100.00
30554;BME280;17335;50.720;7.452;2023-05-19T00:26:16;100112.34;;;5.87;100.00
30554;BME280;17335;50.720;7.452;2023-05-19T00:28:43;100107.28;;;5.82;100.00
30554;BME280;17335;50.720;7.452;2023-05-19T00:31:09;100115.56;;;5.77;100.00
30554;BME280;17335;50.720;7.452;2023-05-19T00:33:36;100106.81;;;5.75;100.00
30554;BME280;17335;50.720;7.452;2023-05-19T00:36:03;100106.16;;;5.72;100.00
30554;BME280;17335;50.720;7.452;2023-05-19T00:38:30;100110.06;;;5.66;100.00
30554;BME280;17335;50.720;7.452;2023-05-19T00:40:58;100115.47;;;5.64;100.00
30554;BME280;17335;50.720;7.452;2023-05-19T00:43:25;100115.56;;;5.63;100.00
30554;BME280;17335;50.720;7.452;2023-05-19T00:45:52;100108.16;;;5.54;100.00
30554;BME280;17335;50.720;7.452;2023-05-19T00:48:19;100108.03;;;5.41;100.00
30554;BME280;17335;50.720;7.452;2023-05-19T00:50:47;100109.75;;;5.42;100.00
30554;BME280;17335;50.720;7.452;2023-05-19T00:53:16;100100.78;;;5.43;100.00
30554;BME280;17335;50.720;7.452;2023-05-19T00:55:43;100101.75;;;5.42;100.00
30554;BME280;17335;50.720;7.452;2023-05-19T00:58:11;100104.50;;;5.40;100.00
30554;BME280;17335;50.720;7.452;2023-05-19T01:00:39;100106.78;;;5.47;100.00
30554;BME280;17335;50.720;7.452;2023-05-19T01:03:07;100105.59;;;5.52;100.00
30554;BME280;17335;50.720;7.452;2023-05-19T01:05:40;100110.25;;;5.49;100.00
30554;BME280;17335;50.720;7.452;2023-05-19T01:08:07;100115.84;;;5.44;100.00
30554;BME280;17335;50.720;7.452;2023-05-19T01:10:34;100118.84;;;5.38;100.00
30554;BME280;17335;50.720;7.452;2023-05-19T01:13:05;100103.94;;;5.21;100.00
30554;BME280;17335;50.720;7.452;2023-05-19T01:15:37;100103.50;;;5.13;100.00
30554;BME280;17335;50.720;7.452;2023-05-19T01:18:13;100109.88;;;5.10;100.00
30554;BME280;17335;50.720;7.452;2023-05-19T01:20:45;100106.44;;;5.08;100.00
30554;BME280;17335;50.720;7.452;2023-05-19T01:23:38;100111.00;;;5.06;100.00
30554;BME280;17335;50.720;7.452;2023-05-19T01:32:28;100112.31;;;4.99;100.00
30554;BME280;17335;50.720;7.452;2023-05-19T01:34:57;100100.78;;;4.98;100.00
30554;BME280;17335;50.720;7.452;2023-05-19T01:37:25;100101.38;;;5.03;100.00
30554;BME280;17335;50.720;7.452;2023-05-19T01:39:52;100102.19;;;5.05;100.00
30554;BME280;17335;50.720;7.452;2023-05-19T01:42:21;100103.03;;;5.06;100.00
30554;BME280;17335;50.720;7.452;2023-05-19T01:44:48;100108.53;;;5.03;100.00
30554;BME280;17335;50.720;7.452;2023-05-19T01:47:16;100101.28;;;5.05;100.00
30554;BME280;17335;50.720;7.452;2023-05-19T01:49:43;100098.72;;;5.03;100.00
30554;BME280;17335;50.720;7.452;2023-05-19T01:52:10;100107.34;;;4.93;100.00
30554;BME280;17335;50.720;7.452;2023-05-19T01:54:36;100111.31;;;4.85;100.00
30554;BME280;17335;50.720;7.452;2023-05-19T02:00:01;100095.91;;;4.76;100.00
30554;BME280;17335;50.720;7.452;2023-05-19T02:05:54;100097.19;;;4.69;100.00
30554;BME280;17335;50.720;7.452;2023-05-19T02:08:47;100100.81;;;4.68;100.00
30554;BME280;17335;50.720;7.452;2023-05-19T02:11:27;100111.34;;;4.69;100.00
30554;BME280;17335;50.720;7.452;2023-05-19T02:14:00;100109.53;;;4.70;100.00
30554;BME280;17335;50.720;7.452;2023-05-19T02:16:28;100102.91;;;4.77;100.00
30554;BME280;17335;50.720;7.452;2023-05-19T02:18:55;100100.09;;;4.80;100.00
30554;BME280;17335;50.720;7.452;2023-05-19T02:21:22;100103.75;;;4.78;100.00
30554;BME280;17335;50.720;7.452;2023-05-19T02:23:49;100109.28;;;4.75;100.00
30554;BME280;17335;50.720;7.452;2023-05-19T02:26:16;100102.25;;;4.74;100.00
30554;BME280;17335;50.720;7.452;2023-05-19T02:28:42;100105.94;;;4.71;100.00
30554;BME280;17335;50.720;7.452;2023-05-19T02:31:09;100109.63;;;4.68;100.00
30554;BME280;17335;50.720;7.452;2023-05-19T02:33:35;100103.28;;;4.71;100.00
30554;BME280;17335;50.720;7.452;2023-05-19T02:36:03;100113.72;;;4.74;100.00
30554;BME280;17335;50.720;7.452;2023-05-19T02:38:29;100097.97;;;4.71;100.00
30554;BME280;17335;50.720;7.452;2023-05-19T02:40:56;100104.22;;;4.70;100.00
30554;BME280;17335;50.720;7.452;2023-05-19T02:43:22;100103.97;;;4.75;100.00
30554;BME280;17335;50.720;7.452;2023-05-19T02:45:49;100104.72;;;4.77;100.00
30554;BME280;17335;50.720;7.452;2023-05-19T02:48:15;100102.91;;;4.77;100.00
30554;BME280;17335;50.720;7.452;2023-05-19T02:50:42;100106.88;;;4.70;100.00
30554;BME280;17335;50.720;7.452;2023-05-19T02:53:08;100103.63;;;4.65;100.00
30554;BME280;17335;50.720;7.452;2023-05-19T02:55:35;100097.81;;;4.58;100.00
30554;BME280;17335;50.720;7.452;2023-05-19T02:58:02;100103.03;;;4.60;100.00
30554;BME280;17335;50.720;7.452;2023-05-19T03:00:29;100093.34;;;4.59;100.00
30554;BME280;17335;50.720;7.452;2023-05-19T03:02:56;100105.38;;;4.66;100.00
30554;BME280;17335;50.720;7.452;2023-05-19T03:05:28;100101.91;;;4.64;100.00
30554;BME280;17335;50.720;7.452;2023-05-19T03:07:55;100106.28;;;4.65;100.00
30554;BME280;17335;50.720;7.452;2023-05-19T03:10:22;100104.56;;;4.64;100.00
30554;BME280;17335;50.720;7.452;2023-05-19T03:12:48;100098.47;;;4.62;100.00
30554;BME280;17335;50.720;7.452;2023-05-19T03:15:15;100110.41;;;4.55;100.00
30554;BME280;17335;50.720;7.452;2023-05-19T03:17:42;100103.75;;;4.47;100.00
30554;BME280;17335;50.720;7.452;2023-05-19T03:20:09;100097.22;;;4.37;100.00
30554;BME280;17335;50.720;7.452;2023-05-19T03:22:36;100096.97;;;4.26;100.00
30554;BME280;17335;50.720;7.452;2023-05-19T03:25:03;100101.53;;;4.24;100.00
30554;BME280;17335;50.720;7.452;2023-05-19T03:27:30;100093.53;;;4.24;100.00
30554;BME280;17335;50.720;7.452;2023-05-19T03:29:56;100094.69;;;4.20;100.00
30554;BME280;17335;50.720;7.452;2023-05-19T03:32:23;100092.19;;;4.17;100.00
30554;BME280;17335;50.720;7.452;2023-05-19T03:34:50;100094.91;;;4.15;100.00
30554;BME280;17335;50.720;7.452;2023-05-19T03:37:17;100089.59;;;4.15;100.00
30554;BME280;17335;50.720;7.452;2023-05-19T03:39:43;100097.50;;;4.17;100.00
30554;BME280;17335;50.720;7.452;2023-05-19T03:42:10;100096.53;;;4.18;100.00
30554;BME280;17335;50.720;7.452;2023-05-19T03:44:36;100100.91;;;4.19;100.00
30554;BME280;17335;50.720;7.452;2023-05-19T03:47:03;100097.50;;;4.17;100.00
30554;BME280;17335;50.720;7.452;2023-05-19T03:49:29;100106.41;;;4.16;100.00
30554;BME280;17335;50.720;7.452;2023-05-19T03:51:56;100109.13;;;4.14;100.00
30554;BME280;17335;50.720;7.452;2023-05-19T03:54:23;100107.59;;;4.10;100.00
30554;BME280;17335;50.720;7.452;2023-05-19T03:56:49;100114.66;;;4.11;100.00
30554;BME280;17335;50.720;7.452;2023-05-19T03:59:17;100112.84;;;4.11;100.00
30554;BME280;17335;50.720;7.452;2023-05-19T04:01:43;100114.44;;;4.14;100.00
30554;BME280;17335;50.720;7.452;2023-05-19T04:04:10;100109.81;;;4.18;100.00
30554;BME280;17335;50.720;7.452;2023-05-19T04:06:37;100111.22;;;4.25;100.00
30554;BME280;17335;50.720;7.452;2023-05-19T04:09:10;100106.69;;;4.27;100.00
30554;BME280;17335;50.720;7.452;2023-05-19T04:11:39;100109.94;;;4.32;100.00
30554;BME280;17335;50.720;7.452;2023-05-19T04:14:06;100107.94;;;4.36;100.00
30554;BME280;17335;50.720;7.452;2023-05-19T04:16:33;100112.22;;;4.38;100.00
30554;BME280;17335;50.720;7.452;2023-05-19T04:19:00;100110.16;;;4.43;100.00
30554;BME280;17335;50.720;7.452;2023-05-19T04:21:27;100111.56;;;4.50;100.00
30554;BME280;17335;50.720;7.452;2023-05-19T04:23:53;100102.19;;;4.59;100.00
30554;BME280;17335;50.720;7.452;2023-05-19T04:26:20;100110.41;;;4.70;100.00
30554;BME280;17335;50.720;7.452;2023-05-19T04:28:47;100105.75;;;4.74;100.00
30554;BME280;17335;50.720;7.452;2023-05-19T04:31:14;100105.59;;;4.77;100.00
30554;BME280;17335;50.720;7.452;2023-05-19T04:33:44;100113.38;;;4.80;100.00
30554;BME280;17335;50.720;7.452;2023-05-19T04:36:11;100103.88;;;5.06;100.00
30554;BME280;17335;50.720;7.452;2023-05-19T04:38:39;100097.94;;;5.32;100.00
30554;BME280;17335;50.720;7.452;2023-05-19T04:41:05;100099.31;;;6.11;100.00
30554;BME280;17335;50.720;7.452;2023-05-19T04:43:36;100096.03;;;7.02;100.00
30554;BME280;17335;50.720;7.452;2023-05-19T04:46:08;100068.75;;;9.09;100.00
30554;BME280;17335;50.720;7.452;2023-05-19T04:48:39;100049.59;;;11.35;100.00
30554;BME280;17335;50.720;7.452;2023-05-19T04:51:06;100028.84;;;13.35;100.00
30554;BME280;17335;50.720;7.452;2023-05-19T04:53:33;100024.44;;;14.73;100.00
30554;BME280;17335;50.720;7.452;2023-05-19T04:56:00;100029.50;;;15.90;100.00
30554;BME280;17335;50.720;7.452;2023-05-19T04:58:27;100019.72;;;16.65;95.30
30554;BME280;17335;50.720;7.452;2023-05-19T05:00:54;100016.19;;;17.30;78.20
30554;BME280;17335;50.720;7.452;2023-05-19T05:03:23;100016.13;;;18.11;68.98
30554;BME280;17335;50.720;7.452;2023-05-19T05:05:51;100015.28;;;18.65;63.90
30554;BME280;17335;50.720;7.452;2023-05-19T05:08:18;100015.09;;;18.66;63.17
30554;BME280;17335;50.720;7.452;2023-05-19T05:10:51;100011.91;;;18.40;65.89
30554;BME280;17335;50.720;7.452;2023-05-19T05:13:22;100019.19;;;18.08;67.75
30554;BME280;17335;50.720;7.452;2023-05-19T05:15:49;100012.50;;;18.18;67.66
30554;BME280;17335;50.720;7.452;2023-05-19T05:18:17;100020.94;;;18.32;69.92
30554;BME280;17335;50.720;7.452;2023-05-19T05:20:44;100015.69;;;17.91;73.33
30554;BME280;17335;50.720;7.452;2023-05-19T05:23:12;100017.06;;;18.26;66.06
30554;BME280;17335;50.720;7.452;2023-05-19T05:25:43;100022.19;;;18.21;65.08
30554;BME280;17335;50.720;7.452;2023-05-19T05:28:10;100020.22;;;17.42;77.21
30554;BME280;17335;50.720;7.452;2023-05-19T05:30:36;100021.94;;;17.19;77.85
30554;BME280;17335;50.720;7.452;2023-05-19T05:33:03;100017.22;;;17.13;79.01
30554;BME280;17335;50.720;7.452;2023-05-19T05:35:30;100023.44;;;16.47;84.15
30554;BME280;17335;50.720;7.452;2023-05-19T05:37:57;100022.38;;;16.48;83.38
30554;BME280;17335;50.720;7.452;2023-05-19T05:40:24;100026.06;;;16.15;93.96
30554;BME280;17335;50.720;7.452;2023-05-19T05:42:51;100022.25;;;16.58;87.53
30554;BME280;17335;50.720;7.452;2023-05-19T05:45:17;100021.31;;;16.17;95.37
30554;BME280;17335;50.720;7.452;2023-05-19T05:47:44;100022.31;;;15.73;98.96
30554;BME280;17335;50.720;7.452;2023-05-19T05:50:11;100022.03;;;15.84;93.10
30554;BME280;17335;50.720;7.452;2023-05-19T05:52:39;100018.03;;;15.70;92.27
30554;BME280;17335;50.720;7.452;2023-05-19T05:55:07;100021.53;;;15.28;92.93
30554;BME280;17335;50.720;7.452;2023-05-19T05:57:33;100026.59;;;15.05;96.86
30554;BME280;17335;50.720;7.452;2023-05-19T06:00:02;100020.72;;;14.38;100.00
30554;BME280;17335;50.720;7.452;2023-05-19T06:02:32;100023.16;;;14.13;100.00
30554;BME280;17335;50.720;7.452;2023-05-19T06:04:59;100023.84;;;14.33;100.00
30554;BME280;17335;50.720;7.452;2023-05-19T06:07:25;100031.09;;;14.60;100.00
30554;BME280;17335;50.720;7.452;2023-05-19T06:09:52;100020.38;;;14.23;100.00
30554;BME280;17335;50.720;7.452;2023-05-19T06:12:19;100016.22;;;13.73;100.00
30554;BME280;17335;50.720;7.452;2023-05-19T06:14:45;100024.16;;;13.37;100.00
30554;BME280;17335;50.720;7.452;2023-05-19T06:17:12;100015.69;;;13.12;100.00
30554;BME280;17335;50.720;7.452;2023-05-19T06:19:38;100021.53;;;12.98;100.00
30554;BME280;17335;50.720;7.452;2023-05-19T06:22:05;100021.38;;;12.80;100.00
30554;BME280;17335;50.720;7.452;2023-05-19T06:24:31;100011.59;;;12.89;100.00
30554;BME280;17335;50.720;7.452;2023-05-19T06:26:58;100019.53;;;12.90;100.00
30554;BME280;17335;50.720;7.452;2023-05-19T06:29:25;100016.25;;;13.06;100.00
30554;BME280;17335;50.720;7.452;2023-05-19T06:31:51;100018.09;;;13.16;100.00
30554;BME280;17335;50.720;7.452;2023-05-19T06:34:18;100011.97;;;13.23;100.00
30554;BME280;17335;50.720;7.452;2023-05-19T06:36:46;100018.06;;;13.35;100.00
30554;BME280;17335;50.720;7.452;2023-05-19T06:39:13;100015.78;;;13.40;100.00
30554;BME280;17335;50.720;7.452;2023-05-19T06:41:39;100017.63;;;13.30;100.00
30554;BME280;17335;50.720;7.452;2023-05-19T06:44:06;100015.53;;;13.24;100.00
30554;BME280;17335;50.720;7.452;2023-05-19T06:46:34;100016.63;;;13.31;100.00
30554;BME280;17335;50.720;7.452;2023-05-19T06:49:00;100011.00;;;13.34;100.00
30554;BME280;17335;50.720;7.452;2023-05-19T06:51:28;100011.31;;;13.02;100.00
30554;BME280;17335;50.720;7.452;2023-05-19T06:53:54;100015.25;;;13.07;100.00
30554;BME280;17335;50.720;7.452;2023-05-19T06:56:21;100012.16;;;13.02;100.00
30554;BME280;17335;50.720;7.452;2023-05-19T06:58:48;100015.13;;;13.19;100.00
30554;BME280;17335;50.720;7.452;2023-05-19T07:01:14;100019.94;;;13.35;100.00
30554;BME280;17335;50.720;7.452;2023-05-19T07:03:41;100012.94;;;13.42;100.00
30554;BME280;17335;50.720;7.452;2023-05-19T07:06:08;100014.19;;;13.47;100.00
30554;BME280;17335;50.720;7.452;2023-05-19T07:08:35;100011.50;;;13.47;100.00
30554;BME280;17335;50.720;7.452;2023-05-19T07:11:02;100015.47;;;13.53;100.00
30554;BME280;17335;50.720;7.452;2023-05-19T07:13:29;100009.47;;;13.59;100.00
30554;BME280;17335;50.720;7.452;2023-05-19T07:15:55;100008.63;;;13.59;100.00
30554;BME280;17335;50.720;7.452;2023-05-19T07:18:23;100010.50;;;13.48;100.00
30554;BME280;17335;50.720;7.452;2023-05-19T07:20:51;100011.09;;;13.42;100.00
30554;BME280;17335;50.720;7.452;2023-05-19T07:23:19;99996.63;;;13.43;100.00
30554;BME280;17335;50.720;7.452;2023-05-19T07:25:45;100002.22;;;13.60;100.00
30554;BME280;17335;50.720;7.452;2023-05-19T07:28:12;100006.50;;;13.90;100.00
30554;BME280;17335;50.720;7.452;2023-05-19T07:30:38;100002.56;;;13.84;100.00
30554;BME280;17335;50.720;7.452;2023-05-19T07:33:05;100006.84;;;13.77;100.00
30554;BME280;17335;50.720;7.452;2023-05-19T07:35:32;100001.13;;;13.80;100.00
30554;BME280;17335;50.720;7.452;2023-05-19T07:38:02;99988.38;;;13.82;100.00
30554;BME280;17335;50.720;7.452;2023-05-19T07:40:29;99994.81;;;13.99;100.00
30554;BME280;17335;50.720;7.452;2023-05-19T07:42:56;99996.50;;;14.00;100.00
30554;BME280;17335;50.720;7.452;2023-05-19T07:45:23;99988.41;;;14.00;100.00
30554;BME280;17335;50.720;7.452;2023-05-19T07:47:49;99997.22;;;14.20;100.00
30554;BME280;17335;50.720;7.452;2023-05-19T07:50:16;99984.72;;;14.19;100.00
30554;BME280;17335;50.720;7.452;2023-05-19T07:52:43;99982.59;;;14.41;100.00
30554;BME280;17335;50.720;7.452;2023-05-19T07:55:10;99983.91;;;14.55;100.00
30554;BME280;17335;50.720;7.452;2023-05-19T07:57:37;99988.44;;;14.54;100.00
30554;BME280;17335;50.720;7.452;2023-05-19T08:00:06;99988.41;;;14.64;100.00
30554;BME280;17335;50.720;7.452;2023-05-19T08:02:35;99991.25;;;14.62;100.00
30554;BME280;17335;50.720;7.452;2023-05-19T08:05:02;99982.28;;;14.80;100.00
30554;BME280;17335;50.720;7.452;2023-05-19T08:07:28;99986.75;;;14.89;100.00
30554;BME280;17335;50.720;7.452;2023-05-19T08:09:55;99980.31;;;15.08;100.00
30554;BME280;17335;50.720;7.452;2023-05-19T08:12:21;99986.25;;;15.12;99.68
30554;BME280;17335;50.720;7.452;2023-05-19T08:14:48;99984.88;;;15.08;100.00
30554;BME280;17335;50.720;7.452;2023-05-19T08:17:15;99977.81;;;14.89;97.30
30554;BME280;17335;50.720;7.452;2023-05-19T08:19:41;99985.88;;;15.07;100.00
30554;BME280;17335;50.720;7.452;2023-05-19T08:22:08;99977.97;;;15.13;100.00
30554;BME280;17335;50.720;7.452;2023-05-19T08:24:35;99975.00;;;15.25;100.00
30554;BME280;17335;50.720;7.452;2023-05-19T08:27:02;99973.88;;;15.35;100.00
30554;BME280;17335;50.720;7.452;2023-05-19T08:29:30;99974.25;;;15.41;93.67
30554;BME280;17335;50.720;7.452;2023-05-19T08:31:58;99965.84;;;15.52;96.84
30554;BME280;17335;50.720;7.452;2023-05-19T08:34:25;99965.13;;;15.42;92.78
30554;BME280;17335;50.720;7.452;2023-05-19T08:36:52;99965.22;;;15.58;94.07
30554;BME280;17335;50.720;7.452;2023-05-19T08:39:18;99967.28;;;15.72;96.76
30554;BME280;17335;50.720;7.452;2023-05-19T08:41:49;99951.31;;;15.87;88.80
30554;BME280;17335;50.720;7.452;2023-05-19T08:44:16;99942.72;;;16.00;88.51
30554;BME280;17335;50.720;7.452;2023-05-19T08:46:46;99939.38;;;16.15;80.59
30554;BME280;17335;50.720;7.452;2023-05-19T08:49:13;99934.31;;;16.36;84.10
30554;BME280;17335;50.720;7.452;2023-05-19T08:54:45;99945.16;;;16.44;70.46
30554;BME280;17335;50.720;7.452;2023-05-19T08:57:13;99937.34;;;16.33;75.37
30554;BME280;17335;50.720;7.452;2023-05-19T08:59:42;99937.34;;;16.33;74.43
30554;BME280;17335;50.720;7.452;2023-05-19T09:02:10;99938.19;;;16.25;74.69
30554;BME280;17335;50.720;7.452;2023-05-19T09:04:39;99929.91;;;16.35;76.27
30554;BME280;17335;50.720;7.452;2023-05-19T09:07:06;99932.22;;;16.05;74.71
30554;BME280;17335;50.720;7.452;2023-05-19T09:09:34;99933.94;;;16.15;83.44
30554;BME280;17335;50.720;7.452;2023-05-19T09:12:01;99931.09;;;16.16;74.21
30554;BME280;17335;50.720;7.452;2023-05-19T09:14:28;99930.56;;;16.21;75.65
30554;BME280;17335;50.720;7.452;2023-05-19T09:16:54;99932.44;;;16.20;74.51
30554;BME280;17335;50.720;7.452;2023-05-19T09:19:22;99928.38;;;16.24;67.63
30554;BME280;17335;50.720;7.452;2023-05-19T09:21:57;99925.84;;;16.15;69.81
30554;BME280;17335;50.720;7.452;2023-05-19T09:24:30;99922.25;;;16.06;72.13
30554;BME280;17335;50.720;7.452;2023-05-19T09:26:57;99926.84;;;16.13;73.46
30554;BME280;17335;50.720;7.452;2023-05-19T09:29:25;99921.75;;;16.10;69.75
30554;BME280;17335;50.720;7.452;2023-05-19T09:31:54;99921.09;;;16.17;70.86
30554;BME280;17335;50.720;7.452;2023-05-19T09:34:22;99910.75;;;16.20;63.51
30554;BME280;17335;50.720;7.452;2023-05-19T09:36:50;99913.66;;;16.52;61.79
30554;BME280;17335;50.720;7.452;2023-05-19T09:39:19;99910.25;;;16.99;66.92
30554;BME280;17335;50.720;7.452;2023-05-19T09:41:50;99901.22;;;17.23;65.00
30554;BME280;17335;50.720;7.452;2023-05-19T09:46:49;99902.50;;;17.43;63.48
30554;BME280;17335;50.720;7.452;2023-05-19T09:49:20;99905.19;;;17.52;59.96
30554;BME280;17335;50.720;7.452;2023-05-19T09:51:54;99897.75;;;17.77;57.86
30554;BME280;17335;50.720;7.452;2023-05-19T09:54:23;99897.56;;;17.87;56.03
30554;BME280;17335;50.720;7.452;2023-05-19T09:56:55;99900.84;;;18.28;56.90
30554;BME280;17335;50.720;7.452;2023-05-19T09:59:23;99893.72;;;18.04;55.92
30554;BME280;17335;50.720;7.452;2023-05-19T10:01:57;99897.63;;;18.02;54.94
30554;BME280;17335;50.720;7.452;2023-05-19T10:04:26;99897.31;;;18.28;58.00
30554;BME280;17335;50.720;7.452;2023-05-19T10:06:54;99900.19;;;18.26;54.47
30554;BME280;17335;50.720;7.452;2023-05-19T10:09:25;99886.38;;;18.36;51.42
30554;BME280;17335;50.720;7.452;2023-05-19T10:11:54;99891.88;;;18.66;52.72
30554;BME280;17335;50.720;7.452;2023-05-19T10:14:26;99893.84;;;18.57;53.60
30554;BME280;17335;50.720;7.452;2023-05-19T10:16:55;99894.06;;;18.70;52.35
30554;BME280;17335;50.720;7.452;2023-05-19T10:19:24;99890.31;;;18.71;52.74
30554;BME280;17335;50.720;7.452;2023-05-19T10:21:52;99874.72;;;19.03;49.42
30554;BME280;17335;50.720;7.452;2023-05-19T10:24:19;99879.19;;;18.96;51.67
30554;BME280;17335;50.720;7.452;2023-05-19T10:26:51;99877.00;;;18.39;47.22
30554;BME280;17335;50.720;7.452;2023-05-19T10:29:24;99873.25;;;18.78;51.56
30554;BME280;17335;50.720;7.452;2023-05-19T10:31:54;99874.94;;;18.79;48.66
30554;BME280;17335;50.720;7.452;2023-05-19T10:40:21;99866.13;;;19.51;52.08
30554;BME280;17335;50.720;7.452;2023-05-19T10:43:04;99880.53;;;19.45;48.64
30554;BME280;17335;50.720;7.452;2023-05-19T10:45:50;99873.88;;;19.18;46.84
30554;BME280;17335;50.720;7.452;2023-05-19T10:48:20;99865.66;;;19.47;50.77
30554;BME280;17335;50.720;7.452;2023-05-19T10:50:52;99868.25;;;19.34;48.25
30554;BME280;17335;50.720;7.452;2023-05-19T10:53:19;99867.69;;;19.24;50.12
30554;BME280;17335;50.720;7.452;2023-05-19T10:55:53;99867.38;;;19.34;49.96
30554;BME280;17335;50.720;7.452;2023-05-19T11:01:15;99861.47;;;19.30;50.78
30554;BME280;17335;50.720;7.452;2023-05-19T11:03:46;99847.06;;;19.51;50.55
30554;BME280;17335;50.720;7.452;2023-05-19T11:06:27;99846.78;;;19.46;45.38
30554;BME280;17335;50.720;7.452;2023-05-19T11:08:57;99843.81;;;19.92;45.93
30554;BME280;17335;50.720;7.452;2023-05-19T11:11:51;99835.44;;;19.57;43.75
30554;BME280;17335;50.720;7.452;2023-05-19T11:14:21;99835.44;;;19.94;45.76
30554;BME280;17335;50.720;7.452;2023-05-19T11:16:50;99835.06;;;19.97;49.34
30554;BME280;17335;50.720;7.452;2023-05-19T11:19:30;99837.38;;;19.78;46.27
30554;BME280;17335;50.720;7.452;2023-05-19T11:22:08;99832.22;;;20.05;45.78
30554;BME280;17335;50.720;7.452;2023-05-19T11:24:36;99833.19;;;20.47;49.03
30554;BME280;17335;50.720;7.452;2023-05-19T11:29:53;99815.56;;;20.21;43.60
30554;BME280;17335;50.720;7.452;2023-05-19T11:32:21;99808.91;;;20.24;43.94
30554;BME280;17335;50.720;7.452;2023-05-19T11:34:51;99821.94;;;20.07;43.49
30554;BME280;17335;50.720;7.452;2023-05-19T11:37:18;99822.81;;;19.35;43.37
30554;BME280;17335;50.720;7.452;2023-05-19T11:39:45;99809.00;;;19.36;45.00
30554;BME280;17335;50.720;7.452;2023-05-19T11:42:12;99820.06;;;20.08;45.82
30554;BME280;17335;50.720;7.452;2023-05-19T11:44:39;99823.84;;;20.07;45.07
30554;BME280;17335;50.720;7.452;2023-05-19T11:47:07;99825.81;;;19.61;44.24
30554;BME280;17335;50.720;7.452;2023-05-19T11:49:34;99818.25;;;19.57;44.84
30554;BME280;17335;50.720;7.452;2023-05-19T11:52:01;99815.63;;;19.48;44.18
30554;BME280;17335;50.720;7.452;2023-05-19T11:54:30;99806.97;;;19.60;44.74
30554;BME280;17335;50.720;7.452;2023-05-19T11:57:02;99797.47;;;19.34;45.09
30554;BME280;17335;50.720;7.452;2023-05-19T11:59:33;99804.38;;;19.73;45.85
30554;BME280;17335;50.720;7.452;2023-05-19T12:02:24;99800.41;;;20.12;44.83
30554;BME280;17335;50.720;7.452;2023-05-19T12:04:52;99802.59;;;19.80;41.93
30554;BME280;17335;50.720;7.452;2023-05-19T12:07:21;99789.75;;;19.96;42.78
30554;BME280;17335;50.720;7.452;2023-05-19T12:09:49;99797.16;;;20.23;43.27
30554;BME280;17335;50.720;7.452;2023-05-19T12:12:18;99788.78;;;19.82;42.06
30554;BME280;17335;50.720;7.452;2023-05-19T12:14:45;99792.22;;;19.91;43.89
30554;BME280;17335;50.720;7.452;2023-05-19T12:17:13;99790.00;;;20.22;45.14
30554;BME280;17335;50.720;7.452;2023-05-19T12:19:42;99785.56;;;20.43;44.20
30554;BME280;17335;50.720;7.452;2023-05-19T12:22:10;99782.28;;;20.54;44.58
30554;BME280;17335;50.720;7.452;2023-05-19T12:24:38;99781.00;;;20.22;42.09
30554;BME280;17335;50.720;7.452;2023-05-19T12:27:10;99793.28;;;20.39;43.28
30554;BME280;17335;50.720;7.452;2023-05-19T12:29:39;99778.19;;;20.65;42.12
30554;BME280;17335;50.720;7.452;2023-05-19T12:32:06;99775.94;;;20.75;42.90
30554;BME280;17335;50.720;7.452;2023-05-19T12:34:35;99779.00;;;21.01;42.25
30554;BME280;17335;50.720;7.452;2023-05-19T12:37:03;99773.63;;;20.51;42.75
30554;BME280;17335;50.720;7.452;2023-05-19T12:39:30;99774.19;;;19.90;44.36
30554;BME280;17335;50.720;7.452;2023-05-19T12:42:07;99766.78;;;20.05;45.62
30554;BME280;17335;50.720;7.452;2023-05-19T12:44:41;99766.78;;;20.05;43.90
30554;BME280;17335;50.720;7.452;2023-05-19T12:47:08;99764.72;;;20.07;44.24
30554;BME280;17335;50.720;7.452;2023-05-19T12:49:35;99756.84;;;20.19;43.02
30554;BME280;17335;50.720;7.452;2023-05-19T12:52:02;99747.53;;;20.35;43.73
30554;BME280;17335;50.720;7.452;2023-05-19T12:54:36;99752.28;;;20.83;42.30
30554;BME280;17335;50.720;7.452;2023-05-19T12:57:04;99746.75;;;20.41;42.50
30554;BME280;17335;50.720;7.452;2023-05-19T12:59:32;99738.97;;;20.73;43.31
30554;BME280;17335;50.720;7.452;2023-05-19T13:02:05;99748.13;;;20.93;43.47
30554;BME280;17335;50.720;7.452;2023-05-19T13:04:32;99753.31;;;19.97;42.43
30554;BME280;17335;50.720;7.452;2023-05-19T13:06:58;99739.59;;;19.68;45.52
30554;BME280;17335;50.720;7.452;2023-05-19T13:09:25;99748.59;;;20.40;44.88
30554;BME280;17335;50.720;7.452;2023-05-19T13:11:53;99744.19;;;20.68;44.05
30554;BME280;17335;50.720;7.452;2023-05-19T13:14:20;99747.78;;;20.12;43.32
30554;BME280;17335;50.720;7.452;2023-05-19T13:16:47;99739.28;;;20.28;43.55
30554;BME280;17335;50.720;7.452;2023-05-19T13:19:16;99747.16;;;20.73;43.13
30554;BME280;17335;50.720;7.452;2023-05-19T13:21:51;99736.75;;;20.55;40.44
30554;BME280;17335;50.720;7.452;2023-05-19T13:24:18;99736.72;;;20.83;42.75
30554;BME280;17335;50.720;7.452;2023-05-19T13:26:44;99733.56;;;21.28;41.91
30554;BME280;17335;50.720;7.452;2023-05-19T13:29:11;99741.78;;;21.34;38.26